• Join FlightAware (Why Join?)
  • Login
  • US Flag 
02:41PM EDT


 

Airport Tracker/Info


-or-


 

Live Flight TrackerFlight Track Log ✈ UPS1269 ✈ 29-Aug-2013 ✈ KGSO - KSDF

Flight Track Log - Related Links

Times and Time Zones

All times are in EDT time to prevent confusion due to time zone crossing. See the UPS1269 flight status page for this flight to view local times or setup timezone preferences in your user account.

Time Position Orientation Groundspeed Altitude Reporting Facility
EDT Latitude Longitude Course Direction KTS MPH feet Rate Location/Type
11:29PM 36.2308 -79.9100 308° West 286 329 8,400  Level Atlanta Center
11:30PM 36.2719 -80.0214 295° West 328 377 10,800 1,800 Climbing Atlanta Center
11:31PM 36.3128 -80.1250 296° West 373 429 12,000 1,320 Climbing Atlanta Center
11:32PM 36.3478 -80.2417 290° West 387 445 13,500 2,160 Climbing Atlanta Center
11:33PM 36.4496 -80.5740 296° West  Level FlightAware Approximate
11:33PM 36.3728 -80.3747 283° West 393 452 16,400  Level Atlanta Center
11:34PM 36.5108 -80.6773 308° West  Level FlightAware Approximate
11:38PM 36.5963 -81.2528 283° West 473 544 28,000  Level FlightAware ADS-B
11:40PM 36.6543 -81.4432 291° West 472 543 28,000  Level FlightAware ADS-B
11:40PM 36.6781 -81.5217 291° West 468 539 28,000  Level FlightAware ADS-B
11:41PM 36.7015 -81.5989 291° West 467 537 28,000  Level FlightAware ADS-B
11:42PM 36.7414 -81.7316 291° West 466 536 28,000  Level FlightAware ADS-B
11:43PM 36.8028 -81.9372 291° West 467 537 28,000  Level FlightAware ADS-B
11:44PM 36.8252 -82.0123 290° West 464 534 28,000  Level FlightAware ADS-B
11:44PM 36.8475 -82.0876 290° West 465 535 28,000  Level FlightAware ADS-B
11:45PM 36.8704 -82.1645 290° West 464 534 28,000  Level FlightAware ADS-B
11:45PM 36.9000 -82.2643 290° West 466 536 28,000  Level FlightAware ADS-B
11:46PM 36.9277 -82.3588 290° West 467 537 28,000  Level FlightAware ADS-B
11:46PM 36.9545 -82.4502 290° West 466 536 28,000  Level FlightAware ADS-B
11:47PM 36.9773 -82.5283 290° West 465 535 28,000  Level FlightAware ADS-B
11:47PM 36.9998 -82.6058 290° West 465 535 28,000  Level FlightAware ADS-B
11:48PM 37.0224 -82.6828 290° West 465 535 28,000  Level FlightAware ADS-B
11:48PM 37.0444 -82.7587 290° West 466 536 28,000  Level FlightAware ADS-B
11:49PM 37.0669 -82.8366 290° West 467 537 28,000  Level FlightAware ADS-B
11:49PM 37.0889 -82.9133 290° West 468 539 28,000  Level FlightAware ADS-B
11:50PM 37.1147 -83.0032 290° West 469 540 28,000  Level FlightAware ADS-B
11:51PM 37.1464 -83.1139 290° West 470 541 28,000  Level FlightAware ADS-B
11:51PM 37.1685 -83.1910 290° West 470 541 28,000  Level FlightAware ADS-B
11:52PM 37.1909 -83.2696 290° West 470 541 28,000  Level FlightAware ADS-B
11:52PM 37.2132 -83.3484 290° West 471 542 28,000  Level FlightAware ADS-B
11:53PM 37.2360 -83.4292 290° West 471 542 28,000  Level FlightAware ADS-B
11:53PM 37.2578 -83.5066 290° West 472 543 28,000 -240 Level FlightAware ADS-B
11:54PM 37.2797 -83.5845 289° West 474 545 27,800 -720 Descending FlightAware ADS-B
11:54PM 37.3062 -83.6795 289° West 472 543 27,200 -1,020 Descending FlightAware ADS-B
11:55PM 37.3286 -83.7596 289° West 472 543 26,700 -1,080 Descending FlightAware ADS-B
11:56PM 37.3517 -83.8424 289° West 475 547 26,100 -1,080 Descending FlightAware ADS-B
11:56PM 37.3740 -83.9225 289° West 474 545 25,600 -1,080 Descending FlightAware ADS-B
11:57PM 37.3966 -84.0042 289° West 471 542 25,000 -1,080 Descending FlightAware ADS-B
11:57PM 37.4350 -84.1440 289° West 460 529 24,100 -1,080 Descending FlightAware
11:58PM 37.4489 -84.1949 289° West 460 529 23,700 -1,140 Descending FlightAware ADS-B
11:58PM 37.4770 -84.2972 289° West 460 529 23,000 -1,020 Descending FlightAware ADS-B
11:59PM 37.4978 -84.3732 289° West 450 518 22,500 -1,620 Descending FlightAware ADS-B
12:00AM 37.5300 -84.4910 289° West 442 509 20,900 -2,340 Descending FlightAware
12:00AM 37.5520 -84.5740 289° West 431 496 19,200 -3,180 Descending FlightAware
12:01AM 37.5770 -84.6650 289° West 419 482 17,100 -3,480 Descending FlightAware
12:02AM 37.5980 -84.7420 289° West 409 471 15,100 -3,360 Descending FlightAware
12:02AM 37.6180 -84.8190 288° West 399 459 13,200 -3,300 Descending FlightAware
12:03AM 37.6390 -84.8950 289° West 390 449 11,300 -2,400 Descending FlightAware
12:03AM 37.6630 -84.9640 294° West 358 412 10,500 -1,080 Descending FlightAware
12:04AM 37.7040 -85.0220 312° West 325 374 10,000 -540 Descending FlightAware
12:04AM 37.7220 -85.0470 312° West 302 348 10,000 -180 Level FlightAware
12:05AM 37.7380 -85.0690 313° West 296 341 9,900 -300 Descending FlightAware
12:05AM 37.7730 -85.1180 312° West 291 335 9,700 -240 Descending FlightAware
12:05AM 37.7820 -85.1310 311° West 291 335 9,700 -1,380 Level FlightAware
12:06AM 37.8120 -85.1710 314° West 288 331 8,800 -1,020 Descending FlightAware
12:06AM 37.8320 -85.1990 312° West 288 331 8,800  Level FlightAware
12:07AM 37.8410 -85.2120 311° West 288 331 8,800  Level FlightAware
12:07AM 37.8580 -85.2350 313° West 288 331 8,800  Level FlightAware
12:07AM 37.8760 -85.2610 311° West 288 331 8,800  Level FlightAware
12:08AM 37.8850 -85.2740 311° West 288 331 8,800 -2,400 Level FlightAware
12:09AM 37.9010 -85.3690 282° West 233 268 5,800 -2,460 Descending FlightAware
12:09AM 37.8940 -85.3980 253° West 227 261 5,400 -1,200 Descending FlightAware
12:09AM 37.8880 -85.4200 251° West 230 265 5,000 -1,140 Descending FlightAware
12:10AM 37.8800 -85.4540 253° West 230 265 4,600 -900 Descending FlightAware
12:10AM 37.8760 -85.4720 254° West 232 267 4,400 -300 Descending FlightAware
12:10AM 37.8720 -85.5020 260° West 232 267 4,400 -540 Level FlightAware
12:13AM 37.9700 -85.6460 311° West 234 269 3,000 -600 Descending FlightAware
12:13AM 37.9760 -85.6510 327° Northwest 233 268 3,000  Level FlightAware
12:13AM 37.9860 -85.6580 331° Northwest 231 266 3,000  Level FlightAware
12:13AM 38.0090 -85.6700 338° Northwest 224 258 3,000 -180 Level FlightAware
12:14AM 38.0290 -85.6780 343° North 207 238 2,900 -300 Descending FlightAware
12:14AM 38.0470 -85.6840 345° North 197 227 2,800 -840 Descending FlightAware
12:14AM 38.0670 -85.6900 347° North 193 222 2,300 -1,200 Descending FlightAware
12:15AM 38.0820 -85.6950 345° North 181 208 2,000 -960 Descending FlightAware
12:15AM 38.0990 -85.7010 344° North 155 178 1,700 -780 Descending FlightAware
12:15AM 38.1130 -85.7060 344° North 147 169 1,500 -720 Descending FlightAware
12:16AM 38.1280 -85.7110 345° North 148 170 1,200 -780 Descending FlightAware
12:16AM 38.1390 -85.7150 344° North 148 170 1,000 -720 Descending FlightAware
12:16AM 38.1560 -85.7210 344° North 146 168 700 -720 Descending FlightAware
12:17AM 38.1660 -85.7240 347° North 142 163 500 -300 Descending FlightAware
12:17AM 38.1800 -85.7290 344° North 142 163 500  Level FlightAware